Time;durP1;ratioP1;P1;durP2;ratioP2;P2;SDS_P1;SDS_P2;PMS_P1;PMS_P2;Temp;Humidity;BMP_temperature;BMP_pressure;BME280_temperature;BME280_humidity;BME280_pressure;Samples;Min_cycle;Max_cycle;Signal;HPM_P1;HPM_P2
2024/01/07 00:01:55;;;;;;;1.53;1.43;;;22.00;58.90;;;;;;5050726;28;20450;-65
2024/01/07 00:04:23;;;;;;;1.30;1.20;;;22.00;58.90;;;;;;5037952;28;20439;-65
2024/01/07 00:06:53;;;;;;;1.30;1.20;;;22.00;58.90;;;;;;5050949;28;20487;-66
2024/01/07 00:09:21;;;;;;;1.50;1.40;;;22.00;58.90;;;;;;5051444;28;20430;-67
2024/01/07 00:11:50;;;;;;;3.30;1.67;;;22.00;58.90;;;;;;5047006;28;20458;-69
2024/01/07 00:14:18;;;;;;;2.00;1.50;;;22.00;59.00;;;;;;5036492;28;20984;-67
2024/01/07 00:16:47;;;;;;;1.20;1.10;;;22.00;58.90;;;;;;5048501;28;20432;-66
2024/01/07 00:19:15;;;;;;;1.30;1.20;;;22.00;58.90;;;;;;5050012;28;20438;-66
2024/01/07 00:21:43;;;;;;;1.30;1.03;;;22.00;58.90;;;;;;5051722;28;20442;-66
2024/01/07 00:24:13;;;;;;;1.20;1.10;;;22.00;59.00;;;;;;5051108;28;20434;-66
2024/01/07 00:26:41;;;;;;;1.60;1.50;;;22.00;59.00;;;;;;5051879;28;20957;-66
2024/01/07 00:29:09;;;;;;;1.23;1.23;;;22.00;59.00;;;;;;5047544;28;20548;-69
2024/01/07 00:31:38;;;;;;;4.40;1.50;;;22.00;58.90;;;;;;5051295;28;20442;-67
2024/01/07 00:34:07;;;;;;;1.47;1.37;;;22.00;59.00;;;;;;5059340;28;20454;-66
2024/01/07 00:36:35;;;;;;;1.67;1.57;;;22.00;58.90;;;;;;5060940;28;20855;-71
2024/01/07 00:39:03;;;;;;;1.00;1.00;;;22.00;59.00;;;;;;5059258;28;20530;-66
2024/01/07 00:41:33;;;;;;;1.40;1.30;;;22.00;59.00;;;;;;5061479;28;20486;-67
2024/01/07 00:44:01;;;;;;;1.30;1.20;;;22.00;59.00;;;;;;5059705;28;20477;-66
2024/01/07 00:46:30;;;;;;;1.50;1.40;;;22.00;59.00;;;;;;5055952;28;20548;-70
2024/01/07 00:48:58;;;;;;;1.83;1.10;;;22.00;59.00;;;;;;5058935;28;20472;-69
2024/01/07 00:51:26;;;;;;;1.37;1.10;;;22.00;58.90;;;;;;5058303;28;20448;-65
2024/01/07 00:53:55;;;;;;;1.40;1.30;;;22.00;59.00;;;;;;5063351;28;20463;-66
2024/01/07 00:56:26;;;;;;;1.60;1.20;;;22.00;59.00;;;;;;5060973;28;20481;-66
2024/01/07 00:58:56;;;;;;;1.20;1.20;;;21.90;59.00;;;;;;5059087;28;20466;-65
2024/01/07 01:01:24;;;;;;;1.60;1.30;;;21.90;59.00;;;;;;5059451;28;20449;-69
2024/01/07 01:03:52;;;;;;;1.30;1.20;;;21.90;59.00;;;;;;5063488;28;20494;-66
2024/01/07 01:06:21;;;;;;;0.93;0.90;;;21.90;58.90;;;;;;5070493;28;20476;-66
2024/01/07 01:08:49;;;;;;;1.60;1.50;;;21.90;59.00;;;;;;5057203;28;20965;-67
2024/01/07 01:11:18;;;;;;;1.10;1.03;;;21.90;59.00;;;;;;5057813;28;20460;-66
2024/01/07 01:13:46;;;;;;;1.20;1.10;;;21.90;59.00;;;;;;5054664;28;20530;-66
2024/01/07 01:16:16;;;;;;;1.07;1.07;;;21.90;59.00;;;;;;5057968;28;20492;-66
2024/01/07 01:18:44;;;;;;;0.90;0.90;;;21.90;59.00;;;;;;5059000;28;20437;-67
2024/01/07 01:21:12;;;;;;;1.43;1.33;;;21.90;59.00;;;;;;5064532;28;20801;-67
2024/01/07 01:23:40;;;;;;;1.47;1.17;;;21.90;59.00;;;;;;5057000;28;21062;-67
2024/01/07 01:26:09;;;;;;;1.20;1.10;;;21.90;59.00;;;;;;5063534;28;20483;-66
2024/01/07 01:28:37;;;;;;;1.13;1.07;;;21.80;59.00;;;;;;5054266;28;20478;-66
2024/01/07 01:31:05;;;;;;;1.50;1.40;;;21.80;59.00;;;;;;5052482;28;20442;-67
2024/01/07 01:33:35;;;;;;;1.10;1.10;;;21.80;59.00;;;;;;5048966;28;20786;-66
2024/01/07 01:36:06;;;;;;;1.30;1.20;;;21.80;59.00;;;;;;5050620;28;20969;-66
2024/01/07 01:38:34;;;;;;;1.67;1.57;;;21.80;59.00;;;;;;5050248;28;20455;-66
2024/01/07 01:41:03;;;;;;;1.27;1.20;;;21.80;59.00;;;;;;5050115;28;20464;-66
2024/01/07 01:43:32;;;;;;;1.20;1.13;;;21.80;59.00;;;;;;5054755;28;20454;-66
2024/01/07 01:46:01;;;;;;;1.30;1.30;;;21.80;59.00;;;;;;5052860;28;20462;-67
2024/01/07 01:48:29;;;;;;;1.60;1.37;;;21.80;59.00;;;;;;5033051;28;20470;-67
2024/01/07 01:50:59;;;;;;;1.47;1.00;;;21.80;59.00;;;;;;5048404;28;20821;-66
2024/01/07 01:53:27;;;;;;;1.40;1.30;;;21.80;59.00;;;;;;5054791;28;20525;-65
2024/01/07 01:55:58;;;;;;;1.10;1.10;;;21.80;59.00;;;;;;5054544;28;20963;-66
2024/01/07 01:58:27;;;;;;;1.03;1.03;;;21.80;59.00;;;;;;5052840;28;20532;-66
2024/01/07 02:00:55;;;;;;;1.00;1.00;;;21.80;59.00;;;;;;5094313;28;20473;-66
2024/01/07 02:03:24;;;;;;;1.20;1.10;;;21.70;59.00;;;;;;5058244;28;20915;-66
2024/01/07 02:05:53;;;;;;;0.93;0.93;;;21.70;59.00;;;;;;5065865;28;20440;-73
2024/01/07 02:08:23;;;;;;;1.30;1.20;;;21.70;59.00;;;;;;5063869;28;20476;-66
2024/01/07 02:10:51;;;;;;;1.20;0.90;;;21.70;59.00;;;;;;5063337;28;20465;-66
2024/01/07 02:13:20;;;;;;;1.27;1.17;;;21.70;58.90;;;;;;5050305;28;20461;-66
2024/01/07 02:15:48;;;;;;;1.23;1.20;;;21.70;58.90;;;;;;5054746;28;20440;-66
2024/01/07 02:18:17;;;;;;;0.90;0.90;;;21.70;58.90;;;;;;5045613;28;20484;-67
2024/01/07 02:20:45;;;;;;;2.20;1.00;;;21.70;58.90;;;;;;5060124;28;20507;-66
2024/01/07 02:23:13;;;;;;;1.23;1.10;;;21.70;58.90;;;;;;5058031;28;20446;-66
2024/01/07 02:25:43;;;;;;;1.40;1.30;;;21.70;58.90;;;;;;5053204;28;20843;-69
2024/01/07 02:28:11;;;;;;;1.10;1.00;;;21.70;58.90;;;;;;5054457;28;20513;-70
2024/01/07 02:30:39;;;;;;;1.20;1.10;;;21.70;59.00;;;;;;5053838;28;20430;-66
2024/01/07 02:33:07;;;;;;;1.20;1.13;;;21.70;59.00;;;;;;5087805;28;20798;-66
2024/01/07 02:35:37;;;;;;;0.97;0.93;;;21.60;59.00;;;;;;5053706;28;20461;-66
2024/01/07 02:38:05;;;;;;;1.47;1.40;;;21.60;59.00;;;;;;5050870;28;20458;-69
2024/01/07 02:40:33;;;;;;;1.20;1.20;;;21.60;59.00;;;;;;5052436;28;20503;-68
2024/01/07 02:43:03;;;;;;;1.40;1.10;;;21.60;59.00;;;;;;5083862;28;20450;-66
2024/01/07 02:45:31;;;;;;;1.30;1.20;;;21.60;59.00;;;;;;5066256;28;20462;-68
2024/01/07 02:48:00;;;;;;;1.00;1.00;;;21.60;59.00;;;;;;5038142;28;20528;-70
2024/01/07 02:50:28;;;;;;;1.30;1.20;;;21.60;59.00;;;;;;5054056;28;20470;-66
2024/01/07 02:52:56;;;;;;;0.90;0.90;;;21.60;59.00;;;;;;5050038;28;20453;-66
2024/01/07 02:55:25;;;;;;;1.10;1.00;;;21.60;59.00;;;;;;5053650;28;20457;-66
2024/01/07 02:57:53;;;;;;;1.50;1.40;;;21.60;59.00;;;;;;5051053;28;20438;-66
2024/01/07 03:00:22;;;;;;;0.90;0.90;;;21.60;59.00;;;;;;5065942;28;20480;-66
2024/01/07 03:02:52;;;;;;;1.47;1.37;;;21.60;59.00;;;;;;5051281;28;20454;-67
2024/01/07 03:05:21;;;;;;;1.03;1.03;;;21.60;59.00;;;;;;5052341;28;20557;-68
2024/01/07 03:07:49;;;;;;;0.77;0.77;;;21.50;59.00;;;;;;5053116;28;20474;-65
2024/01/07 03:10:17;;;;;;;0.90;0.90;;;21.50;59.00;;;;;;5058358;28;20474;-73
2024/01/07 03:12:46;;;;;;;1.10;1.00;;;21.50;59.00;;;;;;5055102;28;20497;-66
2024/01/07 03:15:14;;;;;;;1.30;1.20;;;21.50;59.00;;;;;;5032605;28;20802;-66
2024/01/07 03:17:44;;;;;;;0.93;0.93;;;21.50;59.00;;;;;;5033239;28;20489;-72
2024/01/07 03:20:12;;;;;;;1.10;1.07;;;21.50;59.00;;;;;;5046353;28;20852;-67
2024/01/07 03:22:41;;;;;;;1.50;1.40;;;21.50;59.00;;;;;;5048532;28;20585;-66
2024/01/07 03:25:09;;;;;;;1.07;1.07;;;21.50;59.00;;;;;;5053657;28;20441;-66
2024/01/07 03:27:38;;;;;;;1.00;1.00;;;21.50;59.00;;;;;;5053269;28;20500;-66
2024/01/07 03:30:08;;;;;;;1.03;1.03;;;21.50;59.00;;;;;;5052986;28;20811;-66
2024/01/07 03:32:36;;;;;;;1.10;1.00;;;21.50;59.10;;;;;;5051762;28;20468;-69
2024/01/07 03:35:08;;;;;;;1.20;1.20;;;21.40;59.10;;;;;;5033538;28;20452;-67
2024/01/07 03:37:36;;;;;;;1.13;1.13;;;21.40;59.10;;;;;;5033417;28;20433;-66
2024/01/07 03:40:10;;;;;;;1.07;1.07;;;21.40;59.10;;;;;;5041733;28;20550;-69
2024/01/07 03:42:38;;;;;;;0.87;0.87;;;21.40;59.10;;;;;;5048439;28;20457;-70
2024/01/07 03:45:07;;;;;;;0.97;0.97;;;21.40;59.10;;;;;;5052347;28;20787;-66
2024/01/07 03:47:35;;;;;;;0.90;0.90;;;21.40;59.10;;;;;;5051237;28;20434;-70
2024/01/07 03:50:05;;;;;;;1.30;1.23;;;21.40;59.10;;;;;;5040226;28;20502;-66
2024/01/07 03:52:35;;;;;;;0.77;0.77;;;21.40;59.10;;;;;;5052882;28;20442;-66
2024/01/07 03:55:04;;;;;;;0.90;0.90;;;21.40;59.10;;;;;;5052910;28;20429;-66
2024/01/07 03:57:33;;;;;;;1.00;1.00;;;21.40;59.10;;;;;;5038390;28;20934;-66
2024/01/07 04:00:01;;;;;;;0.70;0.70;;;21.40;59.10;;;;;;5056193;28;20456;-67
2024/01/07 04:02:31;;;;;;;1.03;1.03;;;21.40;59.10;;;;;;5050873;28;20453;-72
2024/01/07 04:05:00;;;;;;;0.90;0.90;;;21.40;59.10;;;;;;5051568;28;20422;-66
2024/01/07 04:07:29;;;;;;;1.00;1.00;;;21.30;59.10;;;;;;5052694;28;20964;-66
2024/01/07 04:09:57;;;;;;;1.40;1.30;;;21.30;59.10;;;;;;5052193;28;20518;-66
2024/01/07 04:12:26;;;;;;;0.87;0.87;;;21.30;59.10;;;;;;5050616;28;20461;-66
2024/01/07 04:14:54;;;;;;;1.00;1.00;;;21.30;59.10;;;;;;5050035;28;20461;-66
2024/01/07 04:17:22;;;;;;;1.10;1.10;;;21.30;59.10;;;;;;5052328;28;20446;-66
2024/01/07 04:19:53;;;;;;;1.10;1.10;;;21.30;59.10;;;;;;5044153;28;20476;-66
2024/01/07 04:22:21;;;;;;;0.80;0.80;;;21.30;59.10;;;;;;5052279;28;20557;-67
2024/01/07 04:24:51;;;;;;;0.90;0.90;;;21.30;59.10;;;;;;5052221;28;20966;-66
2024/01/07 04:27:19;;;;;;;1.20;1.07;;;21.30;59.10;;;;;;5052620;28;20517;-66
2024/01/07 04:29:48;;;;;;;0.97;0.97;;;21.30;59.10;;;;;;5042022;28;20470;-65
2024/01/07 04:32:16;;;;;;;1.20;1.20;;;21.30;59.10;;;;;;5038032;28;20965;-70
2024/01/07 04:34:44;;;;;;;0.73;0.73;;;21.30;59.20;;;;;;5051566;28;20422;-66
2024/01/07 04:37:12;;;;;;;1.10;1.00;;;21.30;59.10;;;;;;5050722;28;20512;-70
2024/01/07 04:39:40;;;;;;;1.20;1.10;;;21.30;59.10;;;;;;5051847;28;20444;-68
2024/01/07 04:42:10;;;;;;;1.07;1.07;;;21.30;59.10;;;;;;5052631;28;20433;-66
2024/01/07 04:44:40;;;;;;;1.10;1.10;;;21.30;59.10;;;;;;5051141;28;20476;-68
2024/01/07 04:47:24;;;;;;;0.83;0.83;;;21.30;59.20;;;;;;5051916;28;20437;-68
2024/01/07 04:49:53;;;;;;;1.10;1.00;;;21.30;59.20;;;;;;5055094;28;20478;-66
2024/01/07 04:52:22;;;;;;;1.27;1.17;;;21.30;59.10;;;;;;5054869;28;20441;-67
2024/01/07 04:54:51;;;;;;;1.23;1.13;;;21.30;59.10;;;;;;5050225;28;20446;-70
2024/01/07 04:57:21;;;;;;;1.00;0.97;;;21.30;59.10;;;;;;5052163;28;20437;-66
2024/01/07 04:59:50;;;;;;;0.80;0.80;;;21.30;59.10;;;;;;5051334;28;20437;-66
2024/01/07 05:02:18;;;;;;;1.00;1.00;;;21.30;59.20;;;;;;5049190;28;20469;-66
2024/01/07 05:04:47;;;;;;;0.97;0.97;;;21.30;59.20;;;;;;5065249;28;20479;-67
2024/01/07 05:07:15;;;;;;;1.03;1.03;;;21.30;59.20;;;;;;5071483;28;20469;-66
2024/01/07 05:09:43;;;;;;;1.03;1.00;;;21.30;59.20;;;;;;5071817;28;20885;-67
2024/01/07 05:12:12;;;;;;;0.90;0.90;;;21.30;59.20;;;;;;5066830;28;20437;-69
2024/01/07 05:14:42;;;;;;;1.20;1.20;;;21.30;59.10;;;;;;5069283;28;20647;-66
2024/01/07 05:17:10;;;;;;;1.23;0.90;;;21.30;59.10;;;;;;5072208;28;20517;-66
2024/01/07 05:19:41;;;;;;;0.90;0.90;;;21.40;59.00;;;;;;5045938;28;20514;-66
2024/01/07 05:22:09;;;;;;;1.13;1.03;;;21.40;59.00;;;;;;5043880;28;20974;-66
2024/01/07 05:24:38;;;;;;;3.70;1.03;;;21.40;59.00;;;;;;5051470;28;20459;-66
2024/01/07 05:27:07;;;;;;;1.03;1.03;;;21.40;59.00;;;;;;5051476;28;20819;-67
2024/01/07 05:29:35;;;;;;;1.20;1.10;;;21.50;58.90;;;;;;5051104;28;20454;-67
2024/01/07 05:32:06;;;;;;;1.13;1.03;;;21.50;58.90;;;;;;5051688;28;20462;-66
2024/01/07 05:34:34;;;;;;;1.00;1.00;;;21.50;58.90;;;;;;5050252;28;20907;-69
2024/01/07 05:37:02;;;;;;;0.83;0.83;;;21.50;58.90;;;;;;5031115;28;20552;-67
2024/01/07 05:39:31;;;;;;;0.93;0.93;;;21.60;58.90;;;;;;5044703;28;20454;-67
2024/01/07 05:41:59;;;;;;;1.00;0.97;;;21.60;58.90;;;;;;5047470;28;20445;-66
2024/01/07 05:44:27;;;;;;;1.20;1.10;;;21.60;58.90;;;;;;5045157;28;20500;-66
2024/01/07 05:46:57;;;;;;;1.30;1.20;;;21.60;58.90;;;;;;5047632;28;20442;-66
2024/01/07 05:49:26;;;;;;;2.33;1.10;;;21.70;58.90;;;;;;5043359;28;20458;-66
2024/01/07 05:51:55;;;;;;;0.90;0.90;;;21.70;58.80;;;;;;5048681;28;20523;-67
2024/01/07 05:54:23;;;;;;;2.60;1.00;;;21.70;58.70;;;;;;5042553;28;20461;-67
2024/01/07 05:56:52;;;;;;;1.03;1.00;;;21.70;58.70;;;;;;5050572;28;20539;-66
2024/01/07 05:59:20;;;;;;;1.10;1.07;;;21.80;58.70;;;;;;5048973;28;20430;-66
2024/01/07 06:01:49;;;;;;;1.30;1.20;;;21.80;58.60;;;;;;5042891;28;20511;-66
2024/01/07 06:04:17;;;;;;;2.40;1.10;;;21.80;58.60;;;;;;5050096;28;20423;-67
2024/01/07 06:06:46;;;;;;;0.60;0.60;;;21.80;58.50;;;;;;5050996;28;20496;-66
2024/01/07 06:09:20;;;;;;;0.90;0.87;;;21.90;58.50;;;;;;5050900;28;20425;-67
2024/01/07 06:11:48;;;;;;;0.87;0.87;;;21.90;58.40;;;;;;5050481;28;20472;-67
2024/01/07 06:14:16;;;;;;;1.00;1.00;;;21.90;58.40;;;;;;5050675;28;20430;-66
2024/01/07 06:16:44;;;;;;;0.90;0.90;;;21.90;58.40;;;;;;5037367;28;20509;-66
2024/01/07 06:19:14;;;;;;;1.03;0.93;;;21.90;58.40;;;;;;5029801;28;20494;-67
2024/01/07 06:21:42;;;;;;;1.30;1.20;;;21.90;58.40;;;;;;5049536;28;20442;-67
2024/01/07 06:24:12;;;;;;;1.13;0.97;;;21.90;58.40;;;;;;5049564;28;20859;-67
2024/01/07 06:26:41;;;;;;;1.20;1.20;;;21.80;58.40;;;;;;5045908;28;20477;-68
2024/01/07 06:29:09;;;;;;;1.10;0.93;;;21.80;58.40;;;;;;5057122;28;20816;-67
2024/01/07 06:31:44;;;;;;;0.80;0.80;;;21.80;58.40;;;;;;5064635;28;20527;-67
2024/01/07 06:34:13;;;;;;;1.23;1.13;;;21.80;58.50;;;;;;5035001;28;20462;-73
2024/01/07 06:36:42;;;;;;;1.07;1.07;;;21.80;58.50;;;;;;5034808;28;20478;-69
2024/01/07 06:39:12;;;;;;;1.03;1.03;;;21.80;58.50;;;;;;5047090;28;20473;-67
2024/01/07 06:41:40;;;;;;;1.00;1.00;;;21.80;58.50;;;;;;5053658;28;20491;-71
2024/01/07 06:44:08;;;;;;;1.00;1.00;;;21.80;58.50;;;;;;5050418;28;20840;-66
2024/01/07 06:46:36;;;;;;;1.40;1.30;;;21.80;58.50;;;;;;5053763;28;20493;-67
2024/01/07 06:49:04;;;;;;;1.00;1.00;;;21.80;58.50;;;;;;5050964;28;20533;-67
2024/01/07 06:51:33;;;;;;;1.00;1.00;;;21.80;58.50;;;;;;5034152;28;20577;-67
2024/01/07 06:54:01;;;;;;;0.93;0.93;;;21.80;58.50;;;;;;5052052;28;20439;-66
2024/01/07 06:56:31;;;;;;;1.17;1.03;;;21.80;58.50;;;;;;5050186;28;20474;-67
2024/01/07 06:58:59;;;;;;;1.23;1.23;;;21.80;58.50;;;;;;5033564;28;20860;-66
2024/01/07 07:01:27;;;;;;;1.00;1.00;;;21.80;58.50;;;;;;5033814;28;20435;-66
2024/01/07 07:03:55;;;;;;;1.33;1.10;;;21.80;58.50;;;;;;5050104;28;20545;-67
2024/01/07 07:06:24;;;;;;;0.87;0.87;;;21.80;58.50;;;;;;5049797;28;20516;-67
2024/01/07 07:08:52;;;;;;;1.30;1.20;;;21.80;58.50;;;;;;5043976;28;20914;-66
2024/01/07 07:11:20;;;;;;;0.73;0.73;;;21.80;58.50;;;;;;5049850;28;20853;-68
2024/01/07 07:13:50;;;;;;;1.00;1.00;;;21.80;58.50;;;;;;5052843;28;20488;-68
2024/01/07 07:16:18;;;;;;;0.90;0.90;;;21.80;58.50;;;;;;5053328;28;20476;-66
2024/01/07 07:18:46;;;;;;;1.37;1.27;;;21.80;58.50;;;;;;5060635;28;20498;-66
2024/01/07 07:21:15;;;;;;;1.00;1.00;;;21.80;58.50;;;;;;5061286;28;20831;-66
2024/01/07 07:23:43;;;;;;;1.00;1.00;;;21.80;58.50;;;;;;5057482;28;20496;-68
2024/01/07 07:26:11;;;;;;;1.70;1.00;;;21.80;58.50;;;;;;5085533;28;20458;-66
2024/01/07 07:28:39;;;;;;;1.37;1.33;;;21.80;58.40;;;;;;5047638;28;20872;-66
2024/01/07 07:31:09;;;;;;;1.10;1.00;;;21.80;58.40;;;;;;5053100;28;20760;-67
2024/01/07 07:33:39;;;;;;;1.20;1.20;;;21.80;58.40;;;;;;5051378;28;20526;-66
2024/01/07 07:36:09;;;;;;;0.93;0.80;;;21.80;58.40;;;;;;5051067;28;20503;-66
2024/01/07 07:38:37;;;;;;;1.27;1.17;;;21.80;58.40;;;;;;5049383;28;20443;-66
2024/01/07 07:41:07;;;;;;;1.33;1.23;;;21.80;58.50;;;;;;5052468;28;20430;-67
2024/01/07 07:43:35;;;;;;;0.90;0.90;;;21.80;58.50;;;;;;5056679;28;20893;-66
2024/01/07 07:46:04;;;;;;;1.10;1.10;;;21.80;58.50;;;;;;5052376;28;20501;-68
2024/01/07 07:48:33;;;;;;;1.40;1.30;;;21.80;58.50;;;;;;5051862;28;20512;-66
2024/01/07 07:51:01;;;;;;;0.93;0.93;;;21.80;58.50;;;;;;5048331;28;20451;-66
2024/01/07 07:53:30;;;;;;;1.67;1.43;;;21.90;58.40;;;;;;5047281;28;20524;-66
2024/01/07 07:55:58;;;;;;;1.33;1.23;;;21.90;58.40;;;;;;5051710;28;20449;-66
2024/01/07 07:58:27;;;;;;;1.13;1.13;;;21.90;58.40;;;;;;5063754;28;20443;-66
2024/01/07 08:00:55;;;;;;;1.00;1.00;;;21.90;58.30;;;;;;5055275;28;20944;-70
2024/01/07 08:03:25;;;;;;;1.40;1.30;;;21.90;58.30;;;;;;5036346;28;20460;-67
2024/01/07 08:05:58;;;;;;;1.50;1.40;;;21.90;58.20;;;;;;5051028;28;21016;-66
2024/01/07 08:08:26;;;;;;;1.10;1.10;;;21.90;58.20;;;;;;5058832;28;20851;-67
2024/01/07 08:10:54;;;;;;;1.20;1.20;;;21.90;58.20;;;;;;5062576;28;20497;-66
2024/01/07 08:13:25;;;;;;;1.30;1.20;;;21.90;58.20;;;;;;5059707;28;20830;-65
2024/01/07 08:15:54;;;;;;;1.60;1.50;;;21.90;58.20;;;;;;5062205;28;20457;-66
2024/01/07 08:18:22;;;;;;;1.43;1.33;;;21.80;58.20;;;;;;5060147;28;20441;-66
2024/01/07 08:20:50;;;;;;;1.40;1.30;;;21.80;58.20;;;;;;5051557;28;20493;-68
2024/01/07 08:23:20;;;;;;;1.13;1.13;;;21.80;58.20;;;;;;5048147;28;21047;-67
2024/01/07 08:25:51;;;;;;;1.00;1.00;;;21.80;58.20;;;;;;5050064;28;20535;-66
2024/01/07 08:28:20;;;;;;;1.90;1.40;;;21.80;58.20;;;;;;5053843;28;20467;-66
2024/01/07 08:30:51;;;;;;;2.03;1.10;;;21.80;58.20;;;;;;5042219;28;20489;-67
2024/01/07 08:33:19;;;;;;;1.60;1.50;;;21.80;58.20;;;;;;5050481;28;20474;-67
2024/01/07 08:35:48;;;;;;;1.60;1.50;;;21.80;58.10;;;;;;5045001;28;20457;-66
2024/01/07 08:38:16;;;;;;;1.70;1.60;;;21.80;58.10;;;;;;5046723;28;20548;-66
2024/01/07 08:40:45;;;;;;;1.70;1.60;;;21.80;58.10;;;;;;5050337;28;20510;-67
2024/01/07 08:43:14;;;;;;;1.10;1.10;;;21.80;58.10;;;;;;5055074;28;20456;-69
2024/01/07 08:45:42;;;;;;;1.60;1.50;;;21.80;58.10;;;;;;5050153;28;20473;-66
2024/01/07 08:48:12;;;;;;;1.37;1.30;;;21.80;58.00;;;;;;5050959;28;20475;-71
2024/01/07 08:50:40;;;;;;;1.70;1.60;;;21.80;58.00;;;;;;5053369;28;20461;-73
2024/01/07 08:53:08;;;;;;;1.57;1.47;;;21.80;58.10;;;;;;5052920;28;20488;-69
2024/01/07 08:55:36;;;;;;;1.50;1.40;;;21.80;58.20;;;;;;5056744;28;20511;-65
2024/01/07 08:58:07;;;;;;;1.90;1.80;;;21.80;58.30;;;;;;5049072;28;20936;-68
2024/01/07 09:00:35;;;;;;;1.43;1.33;;;21.80;58.30;;;;;;5057053;28;20955;-66
2024/01/07 09:03:04;;;;;;;1.27;1.20;;;21.80;58.40;;;;;;5050493;28;21388;-70
2024/01/07 09:05:32;;;;;;;1.70;1.50;;;21.90;58.40;;;;;;5052872;28;20458;-65
2024/01/07 09:08:00;;;;;;;2.00;1.90;;;21.90;58.50;;;;;;5051022;28;20489;-68
2024/01/07 09:10:33;;;;;;;1.70;1.60;;;21.90;58.50;;;;;;5055001;28;20462;-65
2024/01/07 09:13:03;;;;;;;1.50;1.40;;;21.90;58.50;;;;;;5051837;28;20998;-66
2024/01/07 09:15:33;;;;;;;1.53;1.43;;;21.90;58.50;;;;;;5052603;28;20458;-66
2024/01/07 09:18:01;;;;;;;1.67;1.57;;;21.90;58.50;;;;;;5056259;28;20521;-66
2024/01/07 09:20:30;;;;;;;1.67;1.57;;;21.90;58.50;;;;;;5053078;28;20467;-67
2024/01/07 09:22:58;;;;;;;1.47;1.37;;;21.90;58.40;;;;;;5039548;28;20466;-65
2024/01/07 09:25:27;;;;;;;1.70;1.60;;;21.90;58.40;;;;;;5046717;28;20522;-66
2024/01/07 09:27:55;;;;;;;1.73;1.63;;;21.90;58.40;;;;;;5050661;28;20447;-65
2024/01/07 09:30:23;;;;;;;2.20;1.47;;;21.90;58.40;;;;;;5046448;28;20976;-68
2024/01/07 09:32:53;;;;;;;1.57;1.47;;;22.00;58.40;;;;;;5051302;28;21052;-67
2024/01/07 09:35:21;;;;;;;2.63;1.50;;;22.00;58.40;;;;;;5050363;28;20941;-69
2024/01/07 09:37:49;;;;;;;1.70;1.60;;;22.00;58.40;;;;;;5053473;28;21024;-66
2024/01/07 09:40:19;;;;;;;1.50;1.40;;;21.90;58.40;;;;;;5044835;28;20922;-70
2024/01/07 09:42:48;;;;;;;1.93;1.80;;;21.90;58.40;;;;;;5041454;28;20939;-65
2024/01/07 09:45:16;;;;;;;1.80;1.70;;;22.00;58.40;;;;;;5044087;28;20461;-66
2024/01/07 09:47:45;;;;;;;1.97;1.87;;;21.90;58.50;;;;;;5041864;28;20458;-66
2024/01/07 09:50:16;;;;;;;1.70;1.60;;;21.90;58.50;;;;;;5044336;28;20537;-66
2024/01/07 09:52:45;;;;;;;1.97;1.87;;;21.90;58.50;;;;;;5050317;28;20993;-67
2024/01/07 09:55:23;;;;;;;1.90;1.80;;;21.90;58.60;;;;;;5049686;28;20456;-65
2024/01/07 09:57:51;;;;;;;1.70;1.60;;;21.80;58.60;;;;;;5050245;28;20434;-65
2024/01/07 10:00:19;;;;;;;1.63;1.53;;;21.80;58.70;;;;;;5051428;28;20960;-66
2024/01/07 10:02:48;;;;;;;1.60;1.50;;;21.80;58.80;;;;;;5038364;28;20453;-66
2024/01/07 10:05:17;;;;;;;2.40;1.90;;;21.80;58.90;;;;;;5054093;28;20450;-66
2024/01/07 10:07:45;;;;;;;2.13;2.03;;;21.80;59.20;;;;;;5047146;28;20530;-66
2024/01/07 10:10:15;;;;;;;2.77;2.30;;;21.80;59.30;;;;;;5060502;28;20950;-72
2024/01/07 10:12:46;;;;;;;3.43;1.70;;;21.80;59.30;;;;;;5047633;28;20485;-68
2024/01/07 10:15:14;;;;;;;4.83;2.30;;;21.80;59.30;;;;;;5052474;28;20464;-68
2024/01/07 10:17:43;;;;;;;4.57;2.40;;;21.80;59.40;;;;;;5049253;28;20527;-69
2024/01/07 10:20:13;;;;;;;5.57;3.70;;;21.80;59.60;;;;;;5054269;28;20564;-67
2024/01/07 10:22:47;;;;;;;3.60;2.50;;;21.80;59.80;;;;;;5054846;28;20468;-65
2024/01/07 10:25:16;;;;;;;4.47;3.10;;;21.80;60.10;;;;;;5044495;28;20509;-70
2024/01/07 10:27:45;;;;;;;3.37;3.10;;;21.90;60.10;;;;;;5056673;28;20446;-66
2024/01/07 10:30:15;;;;;;;3.57;2.20;;;21.90;60.20;;;;;;5057176;28;20549;-70
2024/01/07 10:32:44;;;;;;;3.30;2.60;;;21.90;60.30;;;;;;5058392;28;20466;-74
2024/01/07 10:35:15;;;;;;;10.47;3.40;;;21.90;60.30;;;;;;5060665;28;20531;-65
2024/01/07 10:37:45;;;;;;;9.43;4.17;;;21.90;60.30;;;;;;5059209;28;20450;-67
2024/01/07 10:40:14;;;;;;;6.43;3.00;;;21.90;60.20;;;;;;5057826;28;20492;-66
2024/01/07 10:42:45;;;;;;;5.40;2.60;;;22.00;60.20;;;;;;5054799;28;20469;-65
2024/01/07 10:45:14;;;;;;;6.10;3.10;;;22.00;60.20;;;;;;5051447;28;20453;-66
2024/01/07 10:47:49;;;;;;;4.10;3.50;;;22.00;60.20;;;;;;5058498;28;20468;-69
2024/01/07 10:50:18;;;;;;;3.73;2.23;;;22.00;60.10;;;;;;5039165;28;20453;-67
2024/01/07 10:52:52;;;;;;;7.00;3.10;;;22.00;60.00;;;;;;5093416;28;20860;-67
2024/01/07 10:55:23;;;;;;;4.00;3.70;;;22.00;60.00;;;;;;5065058;28;20446;-69
2024/01/07 10:57:53;;;;;;;3.67;2.57;;;22.00;60.00;;;;;;5046901;28;20765;-67
2024/01/07 11:00:22;;;;;;;5.93;3.70;;;22.00;60.00;;;;;;5052770;28;20862;-73
2024/01/07 11:03:03;;;;;;;4.30;2.53;;;22.00;60.00;;;;;;5061322;28;21060;-72
2024/01/07 11:05:37;;;;;;;3.60;3.03;;;22.00;60.00;;;;;;5068616;28;20454;-70
2024/01/07 11:08:14;;;;;;;5.33;3.03;;;22.00;59.80;;;;;;5054293;28;20482;-69
2024/01/07 11:10:49;;;;;;;5.90;3.37;;;22.00;59.70;;;;;;5042132;28;20465;-67
2024/01/07 11:13:34;;;;;;;5.20;4.53;;;22.00;59.50;;;;;;5050783;28;20468;-71
2024/01/07 11:16:03;;;;;;;7.90;3.97;;;21.90;59.30;;;;;;5053963;28;20478;-68
2024/01/07 11:18:33;;;;;;;4.87;4.37;;;21.90;59.20;;;;;;5044143;28;20479;-76
2024/01/07 11:21:03;;;;;;;28.77;5.30;;;21.90;59.00;;;;;;5055667;28;20445;-67
2024/01/07 11:23:34;;;;;;;10.40;4.80;;;21.90;58.90;;;;;;5054683;28;20455;-68
2024/01/07 11:26:02;;;;;;;8.60;4.47;;;21.80;58.70;;;;;;5055059;28;20786;-67
2024/01/07 11:28:51;;;;;;;9.53;4.40;;;21.80;58.50;;;;;;5053304;28;20466;-72
2024/01/07 11:31:21;;;;;;;5.50;4.23;;;21.80;58.30;;;;;;5054355;28;20772;-66
2024/01/07 11:33:51;;;;;;;8.77;4.43;;;21.80;58.20;;;;;;5048244;28;20637;-69
2024/01/07 11:36:19;;;;;;;7.93;3.93;;;21.80;58.00;;;;;;5054983;28;20541;-66
2024/01/07 11:38:51;;;;;;;5.03;3.80;;;21.80;57.90;;;;;;5053595;28;20462;-72
2024/01/07 11:41:22;;;;;;;5.03;3.87;;;21.80;57.80;;;;;;5051531;28;20450;-79
2024/01/07 11:43:55;;;;;;;6.17;3.67;;;21.80;57.80;;;;;;5055188;28;20456;-69
2024/01/07 11:46:24;;;;;;;5.53;3.77;;;21.80;57.60;;;;;;5059806;28;20446;-66
2024/01/07 11:48:57;;;;;;;5.03;3.87;;;21.80;57.50;;;;;;5052951;28;22142;-67
2024/01/07 11:51:27;;;;;;;7.70;4.00;;;21.80;57.40;;;;;;5056392;28;21038;-69
2024/01/07 11:53:57;;;;;;;4.07;3.70;;;21.80;57.30;;;;;;5051383;28;20481;-71
2024/01/07 11:56:26;;;;;;;5.63;3.70;;;21.80;57.30;;;;;;5062981;28;20465;-71
2024/01/07 11:58:56;;;;;;;4.43;4.00;;;21.80;57.30;;;;;;5056173;28;20473;-74
2024/01/07 12:01:25;;;;;;;6.53;4.27;;;21.80;57.20;;;;;;5055870;28;20472;-64
2024/01/07 12:03:54;;;;;;;7.03;3.77;;;21.90;57.20;;;;;;5058718;28;20495;-68
2024/01/07 12:06:22;;;;;;;5.70;3.50;;;21.90;57.30;;;;;;5054384;28;20485;-67
2024/01/07 12:08:52;;;;;;;3.93;3.63;;;21.90;57.30;;;;;;5059465;28;20453;-73
2024/01/07 12:11:22;;;;;;;5.30;3.80;;;21.90;57.20;;;;;;5043886;28;20470;-76
2024/01/07 12:13:51;;;;;;;4.83;4.00;;;21.90;57.10;;;;;;5049530;28;20514;-76
2024/01/07 12:16:20;;;;;;;4.60;3.63;;;21.90;56.80;;;;;;5057401;28;20576;-69
2024/01/07 12:18:49;;;;;;;6.80;4.97;;;21.90;56.70;;;;;;5051287;28;20464;-68
2024/01/07 12:21:21;;;;;;;5.00;3.57;;;21.90;56.60;;;;;;5055534;28;20549;-74
2024/01/07 12:23:50;;;;;;;4.90;4.40;;;21.90;56.50;;;;;;5043996;28;20871;-68
2024/01/07 12:26:19;;;;;;;8.43;4.43;;;21.90;56.40;;;;;;5047888;28;20459;-73
2024/01/07 12:28:55;;;;;;;6.70;4.80;;;21.90;56.30;;;;;;5049858;28;20452;-68
2024/01/07 12:31:23;;;;;;;4.77;3.80;;;21.90;56.10;;;;;;5048016;28;20453;-68
2024/01/07 12:33:53;;;;;;;5.97;4.33;;;21.90;55.80;;;;;;5050068;28;20535;-75
2024/01/07 12:36:22;;;;;;;7.37;4.63;;;21.90;55.70;;;;;;5064122;28;20545;-75
2024/01/07 12:38:53;;;;;;;4.80;4.23;;;21.90;55.70;;;;;;5051825;28;20456;-70
2024/01/07 12:41:23;;;;;;;4.70;3.97;;;21.90;55.80;;;;;;5059672;28;20472;-71
2024/01/07 12:43:51;;;;;;;5.13;4.50;;;21.90;55.90;;;;;;5048414;28;20537;-74
2024/01/07 12:46:21;;;;;;;4.63;4.00;;;21.90;56.00;;;;;;5042065;28;20482;-69
2024/01/07 12:48:49;;;;;;;6.10;5.00;;;21.90;56.00;;;;;;5049771;28;20518;-78
2024/01/07 12:51:18;;;;;;;4.47;4.07;;;21.90;56.10;;;;;;5060165;28;20963;-70
2024/01/07 12:53:51;;;;;;;3.50;3.20;;;21.90;56.20;;;;;;5055270;28;20458;-75
2024/01/07 12:56:19;;;;;;;7.10;3.97;;;21.80;56.20;;;;;;5039519;28;20463;-68